Time;durP1;ratioP1;P1;durP2;ratioP2;P2;SDS_P1;SDS_P2;PMS_P1;PMS_P2;Temp;Humidity;BMP_temperature;BMP_pressure;BME280_temperature;BME280_humidity;BME280_pressure;Samples;Min_cycle;Max_cycle;Signal;HPM_P1;HPM_P2
2020/12/21 00:00:17;;;;;;;6.50;2.35;;;12.60;99.90;;;;;;5094891;28;20194;-80
2020/12/21 00:02:46;;;;;;;5.03;2.53;;;12.60;99.90;;;;;;5095129;28;20660;-80
2020/12/21 00:05:12;;;;;;;5.75;2.30;;;12.60;99.90;;;;;;5094565;28;20193;-80
2020/12/21 00:07:38;;;;;;;10.00;3.85;;;12.50;99.90;;;;;;5094508;28;20221;-81
2020/12/21 00:10:06;;;;;;;9.52;2.70;;;12.40;99.90;;;;;;5094706;28;20534;-80
2020/12/21 00:12:32;;;;;;;7.43;2.65;;;12.60;99.90;;;;;;5094413;28;20711;-81
2020/12/21 00:14:59;;;;;;;4.47;2.30;;;12.60;99.90;;;;;;5094446;28;20190;-80
2020/12/21 00:17:26;;;;;;;7.55;2.30;;;12.50;99.90;;;;;;5094285;28;20202;-80
2020/12/21 00:19:52;;;;;;;9.52;2.10;;;12.50;99.90;;;;;;5094365;28;20197;-80
2020/12/21 00:22:18;;;;;;;8.68;2.60;;;12.50;99.90;;;;;;5094548;28;20232;-80
2020/12/21 00:24:45;;;;;;;15.50;2.33;;;12.60;99.90;;;;;;5094379;28;20543;-80
2020/12/21 00:27:11;;;;;;;5.30;1.85;;;12.60;99.90;;;;;;5094125;28;20586;-80
2020/12/21 00:29:37;;;;;;;5.43;2.25;;;12.70;99.90;;;;;;5094281;28;20556;-80
2020/12/21 00:32:04;;;;;;;4.15;2.20;;;12.70;99.90;;;;;;5094007;28;20595;-81
2020/12/21 00:34:31;;;;;;;4.88;2.10;;;12.70;99.90;;;;;;5094175;28;20193;-80
2020/12/21 00:36:57;;;;;;;10.35;2.88;;;12.70;99.90;;;;;;5093830;28;20217;-80
2020/12/21 00:39:23;;;;;;;6.57;2.97;;;12.60;99.90;;;;;;5093997;28;20197;-80
2020/12/21 00:41:50;;;;;;;6.00;2.65;;;12.50;99.90;;;;;;5093929;28;20194;-80
2020/12/21 00:44:16;;;;;;;8.35;2.15;;;12.50;99.90;;;;;;5094021;28;20189;-80
2020/12/21 00:46:43;;;;;;;9.02;2.25;;;12.50;99.90;;;;;;5093750;28;20216;-80
2020/12/21 00:49:10;;;;;;;10.02;2.75;;;12.50;99.90;;;;;;5093840;28;20193;-80
2020/12/21 00:51:37;;;;;;;11.32;2.40;;;12.50;99.90;;;;;;5093770;28;20247;-80
2020/12/21 00:54:04;;;;;;;5.50;2.65;;;12.50;99.90;;;;;;5093787;28;20193;-81
2020/12/21 00:56:31;;;;;;;9.75;2.65;;;12.50;99.90;;;;;;5093510;28;20237;-80
2020/12/21 00:58:57;;;;;;;6.07;2.47;;;12.60;99.90;;;;;;5093761;28;20254;-80
2020/12/21 01:01:27;;;;;;;7.28;2.72;;;12.60;99.90;;;;;;5093782;28;20193;-80
2020/12/21 01:03:53;;;;;;;8.02;2.53;;;12.50;99.90;;;;;;5093708;28;20197;-80
2020/12/21 01:06:20;;;;;;;7.20;2.60;;;12.50;99.90;;;;;;5093665;28;20225;-80
2020/12/21 01:08:47;;;;;;;7.75;3.28;;;12.50;99.90;;;;;;5093806;28;20514;-81
2020/12/21 01:11:16;;;;;;;5.47;2.53;;;12.50;99.90;;;;;;5092647;28;20225;-81
2020/12/21 01:13:43;;;;;;;5.90;2.80;;;12.50;99.90;;;;;;5093540;28;20556;-80
2020/12/21 01:16:10;;;;;;;6.10;2.72;;;12.50;99.90;;;;;;5093508;28;20652;-81
2020/12/21 01:18:37;;;;;;;5.30;2.30;;;12.40;99.90;;;;;;5093413;28;20198;-80
2020/12/21 01:21:03;;;;;;;11.43;3.25;;;12.40;99.90;;;;;;5093466;28;20201;-81
2020/12/21 01:23:30;;;;;;;9.13;2.00;;;12.50;99.90;;;;;;5093362;28;20197;-80
2020/12/21 01:25:57;;;;;;;5.88;2.72;;;12.50;99.90;;;;;;5093452;28;20196;-80
2020/12/21 01:28:23;;;;;;;7.10;2.08;;;12.50;99.90;;;;;;5093412;28;20216;-80
2020/12/21 01:30:49;;;;;;;4.00;2.25;;;12.60;99.90;;;;;;5093409;28;20317;-80
2020/12/21 01:33:16;;;;;;;5.47;2.13;;;12.50;99.90;;;;;;5093392;28;20523;-80
2020/12/21 01:35:42;;;;;;;5.20;2.88;;;12.50;99.90;;;;;;5093101;28;20850;-80
2020/12/21 01:38:08;;;;;;;7.28;2.00;;;12.50;99.90;;;;;;5093290;28;20198;-81
2020/12/21 01:40:35;;;;;;;9.13;2.30;;;12.50;99.90;;;;;;5093296;28;20197;-81
2020/12/21 01:43:02;;;;;;;5.72;2.55;;;12.50;99.90;;;;;;5093062;28;20201;-80
2020/12/21 01:45:28;;;;;;;5.35;2.55;;;12.60;99.90;;;;;;5093404;28;20197;-80
2020/12/21 01:47:54;;;;;;;4.88;2.30;;;12.60;99.90;;;;;;5093186;28;20208;-80
2020/12/21 01:50:20;;;;;;;9.32;2.75;;;12.60;99.90;;;;;;5093083;28;20223;-81
2020/12/21 01:52:47;;;;;;;5.22;3.40;;;12.50;99.90;;;;;;5093054;28;20692;-85
2020/12/21 01:55:14;;;;;;;4.93;2.28;;;12.50;99.90;;;;;;5093145;28;20648;-81
2020/12/21 01:57:40;;;;;;;5.13;2.00;;;12.50;99.90;;;;;;5092805;28;20274;-80
2020/12/21 02:00:07;;;;;;;7.13;2.38;;;12.50;99.90;;;;;;5092717;28;20202;-80
2020/12/21 02:02:34;;;;;;;5.03;1.88;;;12.50;99.90;;;;;;5093161;28;20197;-80
2020/12/21 02:05:01;;;;;;;5.57;2.40;;;12.30;99.90;;;;;;5093214;28;20250;-80
2020/12/21 02:07:28;;;;;;;6.05;1.77;;;12.30;99.90;;;;;;5092788;28;20210;-80
2020/12/21 02:09:55;;;;;;;7.03;2.33;;;12.30;99.90;;;;;;5092917;28;20205;-80
2020/12/21 02:12:21;;;;;;;7.22;3.03;;;12.40;99.90;;;;;;5092874;28;20236;-80
2020/12/21 02:14:47;;;;;;;5.45;2.40;;;12.40;99.90;;;;;;5093345;28;20202;-80
2020/12/21 02:17:14;;;;;;;5.00;2.10;;;12.30;99.90;;;;;;5092968;28;20193;-80
2020/12/21 02:19:41;;;;;;;8.40;2.30;;;12.10;99.90;;;;;;5092939;28;20202;-80
2020/12/21 02:22:11;;;;;;;5.93;2.30;;;12.20;99.90;;;;;;5095130;28;20193;-81
2020/12/21 02:24:38;;;;;;;5.05;2.72;;;12.20;99.90;;;;;;5096707;28;20194;-81
2020/12/21 02:27:04;;;;;;;9.07;1.85;;;12.20;99.90;;;;;;5096654;28;20258;-80
2020/12/21 02:29:31;;;;;;;6.65;2.13;;;12.30;99.90;;;;;;5096667;28;20652;-80
2020/12/21 02:31:58;;;;;;;5.50;2.70;;;12.30;99.90;;;;;;5096597;28;20274;-81
2020/12/21 02:34:26;;;;;;;6.88;2.20;;;12.20;99.90;;;;;;5096536;28;20194;-80
2020/12/21 02:36:53;;;;;;;4.65;2.10;;;12.10;99.90;;;;;;5096331;28;20741;-80
2020/12/21 02:39:21;;;;;;;3.33;1.80;;;12.10;99.90;;;;;;5096314;28;20239;-80
2020/12/21 02:41:47;;;;;;;7.78;2.72;;;12.10;99.90;;;;;;5096225;28;20608;-81
2020/12/21 02:44:13;;;;;;;10.07;2.13;;;12.10;99.90;;;;;;5096253;28;20193;-80
2020/12/21 02:46:43;;;;;;;2.80;2.10;;;12.20;99.90;;;;;;5096380;28;20201;-80
2020/12/21 02:49:09;;;;;;;5.80;2.10;;;12.10;99.90;;;;;;5096213;28;20189;-80
2020/12/21 02:51:35;;;;;;;12.82;3.22;;;12.10;99.90;;;;;;5096081;28;20232;-80
2020/12/21 02:54:01;;;;;;;5.03;2.08;;;12.20;99.90;;;;;;5095867;28;20193;-80
2020/12/21 02:56:28;;;;;;;9.57;2.30;;;12.20;99.90;;;;;;5095714;28;20222;-80
2020/12/21 02:58:54;;;;;;;4.75;2.05;;;12.10;99.90;;;;;;5096062;28;20197;-80
2020/12/21 03:01:21;;;;;;;9.15;2.70;;;12.20;99.90;;;;;;5095836;28;20263;-80
2020/12/21 03:03:47;;;;;;;6.68;2.72;;;12.10;99.90;;;;;;5095909;28;20219;-81
2020/12/21 03:06:13;;;;;;;3.78;1.92;;;12.20;99.90;;;;;;5095715;28;20567;-80
2020/12/21 03:08:39;;;;;;;5.45;2.42;;;12.10;99.90;;;;;;5095963;28;20649;-80
2020/12/21 03:11:08;;;;;;;9.68;2.10;;;12.10;99.90;;;;;;5095880;28;20251;-80
2020/12/21 03:13:36;;;;;;;4.95;2.13;;;12.20;99.90;;;;;;5095867;28;20229;-80
2020/12/21 03:16:02;;;;;;;4.32;2.05;;;12.10;99.90;;;;;;5095672;28;20197;-80
2020/12/21 03:18:28;;;;;;;5.25;2.50;;;12.10;99.90;;;;;;5095771;28;20202;-80
2020/12/21 03:20:54;;;;;;;3.28;2.25;;;12.00;99.90;;;;;;5095575;28;20197;-80
2020/12/21 03:23:20;;;;;;;4.30;1.90;;;12.00;99.90;;;;;;5095591;28;20196;-81
2020/12/21 03:25:46;;;;;;;4.63;1.83;;;12.00;99.90;;;;;;5095487;28;20657;-80
2020/12/21 03:28:13;;;;;;;6.13;2.42;;;12.00;99.90;;;;;;5095646;28;20243;-80
2020/12/21 03:30:40;;;;;;;5.95;2.03;;;12.00;99.90;;;;;;5095423;28;20208;-80
2020/12/21 03:33:06;;;;;;;8.00;2.13;;;12.10;99.90;;;;;;5094348;28;20225;-80
2020/12/21 03:35:32;;;;;;;11.98;2.35;;;12.10;99.90;;;;;;5095213;28;20270;-80
2020/12/21 03:37:58;;;;;;;5.03;2.05;;;12.00;99.90;;;;;;5095332;28;20559;-80
2020/12/21 03:40:24;;;;;;;5.22;2.42;;;12.00;99.90;;;;;;5095187;28;20197;-80
2020/12/21 03:42:51;;;;;;;4.25;1.83;;;12.00;99.90;;;;;;5095209;28;20810;-80
2020/12/21 03:45:17;;;;;;;6.22;2.35;;;12.00;99.90;;;;;;5095117;28;20204;-80
2020/12/21 03:47:44;;;;;;;4.88;1.70;;;12.00;99.90;;;;;;5095052;28;20193;-80
2020/12/21 03:50:10;;;;;;;3.28;1.40;;;12.10;99.90;;;;;;5095040;28;20246;-80
2020/12/21 03:52:36;;;;;;;5.35;2.10;;;12.00;99.90;;;;;;5094960;28;20229;-80
2020/12/21 03:55:03;;;;;;;6.32;2.22;;;11.90;99.90;;;;;;5094877;28;20250;-80
2020/12/21 03:57:29;;;;;;;6.07;1.73;;;11.90;99.90;;;;;;5094614;28;20221;-80
2020/12/21 03:59:55;;;;;;;2.90;1.80;;;11.90;99.90;;;;;;5094855;28;20202;-80
2020/12/21 04:02:22;;;;;;;3.88;1.60;;;11.90;99.90;;;;;;5094749;28;20201;-80
2020/12/21 04:04:49;;;;;;;3.30;1.83;;;11.80;99.90;;;;;;5094683;28;20239;-80
2020/12/21 04:07:15;;;;;;;7.68;2.45;;;11.80;99.90;;;;;;5094549;28;20221;-80
2020/12/21 04:09:41;;;;;;;10.25;3.38;;;11.70;99.90;;;;;;5094785;28;20197;-80
2020/12/21 04:12:07;;;;;;;3.08;1.67;;;11.70;99.90;;;;;;5094503;28;20550;-80
2020/12/21 04:14:33;;;;;;;10.93;2.25;;;11.70;99.90;;;;;;5094392;28;20197;-80
2020/12/21 04:17:00;;;;;;;7.28;2.47;;;11.60;99.90;;;;;;5094572;28;20190;-80
2020/12/21 04:19:27;;;;;;;7.18;2.50;;;11.70;99.90;;;;;;5094436;28;20194;-81
2020/12/21 04:21:54;;;;;;;5.53;1.60;;;11.80;99.90;;;;;;5094557;28;20604;-81
2020/12/21 04:24:22;;;;;;;11.30;2.70;;;11.80;99.90;;;;;;5094236;28;20205;-80
2020/12/21 04:26:48;;;;;;;3.22;1.50;;;11.90;99.90;;;;;;5094297;28;20606;-80
2020/12/21 04:29:15;;;;;;;3.50;1.40;;;12.00;99.90;;;;;;5094453;28;20193;-80
2020/12/21 04:31:41;;;;;;;5.57;1.60;;;12.00;99.90;;;;;;5094273;28;20260;-80
2020/12/21 04:34:07;;;;;;;10.95;1.92;;;12.00;99.90;;;;;;5094132;28;20558;-80
2020/12/21 04:36:33;;;;;;;3.88;1.70;;;12.10;99.90;;;;;;5094244;28;20214;-81
2020/12/21 04:39:01;;;;;;;4.18;1.55;;;12.10;99.90;;;;;;5094182;28;20640;-80
2020/12/21 04:41:27;;;;;;;5.53;2.10;;;12.00;99.90;;;;;;5094070;28;20675;-80
2020/12/21 04:43:55;;;;;;;7.13;2.05;;;12.10;99.90;;;;;;5093882;28;20194;-80
2020/12/21 04:46:22;;;;;;;5.07;1.65;;;12.10;99.90;;;;;;5093849;28;20664;-80
2020/12/21 04:48:49;;;;;;;4.35;2.03;;;12.00;99.90;;;;;;5093902;28;20532;-80
2020/12/21 04:51:17;;;;;;;4.20;1.65;;;12.00;99.90;;;;;;5093616;28;20204;-80
2020/12/21 04:53:44;;;;;;;3.90;1.83;;;12.00;99.90;;;;;;5093995;28;20221;-80
2020/12/21 04:56:11;;;;;;;4.63;1.77;;;12.00;99.90;;;;;;5093572;28;20255;-80
2020/12/21 04:58:44;;;;;;;5.05;2.13;;;12.00;99.90;;;;;;5093803;28;20204;-80
2020/12/21 05:01:11;;;;;;;9.38;1.75;;;12.00;99.90;;;;;;5093860;28;20318;-80
2020/12/21 05:03:37;;;;;;;3.50;1.63;;;12.00;99.90;;;;;;5093867;28;20216;-80
2020/12/21 05:06:07;;;;;;;6.32;1.75;;;12.00;99.90;;;;;;5093573;28;20214;-80
2020/12/21 05:08:33;;;;;;;5.00;1.60;;;12.00;99.90;;;;;;5093780;28;20200;-80
2020/12/21 05:11:01;;;;;;;7.93;1.65;;;12.00;99.90;;;;;;5093898;28;20189;-80
2020/12/21 05:13:29;;;;;;;8.90;1.77;;;12.00;99.90;;;;;;5093465;28;20221;-80
2020/12/21 05:15:56;;;;;;;3.75;1.50;;;12.00;99.90;;;;;;5093374;28;20194;-80
2020/12/21 05:18:24;;;;;;;4.63;2.45;;;12.00;99.90;;;;;;5093553;28;20201;-80
2020/12/21 05:20:56;;;;;;;3.92;2.17;;;12.00;99.90;;;;;;5093485;28;20559;-80
2020/12/21 05:23:22;;;;;;;6.35;1.60;;;12.00;99.90;;;;;;5093477;28;20205;-80
2020/12/21 05:25:57;;;;;;;7.65;2.40;;;12.00;99.90;;;;;;5093431;28;20243;-80
2020/12/21 05:28:28;;;;;;;9.15;1.70;;;11.90;99.90;;;;;;5093421;28;20526;-80
2020/12/21 05:30:56;;;;;;;7.88;1.48;;;12.00;99.90;;;;;;5093568;28;20683;-80
2020/12/21 05:33:23;;;;;;;5.30;2.78;;;12.00;99.90;;;;;;5093439;28;20226;-80
2020/12/21 05:35:50;;;;;;;4.47;1.60;;;12.00;99.90;;;;;;5093082;28;20209;-81
2020/12/21 05:38:25;;;;;;;5.32;2.15;;;12.00;99.90;;;;;;5093423;28;20197;-80
2020/12/21 05:40:52;;;;;;;6.07;1.42;;;12.00;99.90;;;;;;5093281;28;20588;-80
2020/12/21 05:43:27;;;;;;;5.18;1.55;;;12.00;99.90;;;;;;5093289;28;20198;-80
2020/12/21 05:46:05;;;;;;;4.22;1.83;;;11.90;99.90;;;;;;5093142;28;20216;-80
2020/12/21 05:48:33;;;;;;;3.05;1.80;;;11.80;99.90;;;;;;5093293;28;20201;-80
2020/12/21 05:51:02;;;;;;;3.75;1.70;;;11.80;99.90;;;;;;5093315;28;20242;-81
2020/12/21 05:53:35;;;;;;;6.53;1.77;;;11.80;99.90;;;;;;5093085;28;20224;-80
2020/12/21 05:56:01;;;;;;;4.65;1.55;;;11.80;99.90;;;;;;5093319;28;20193;-86
2020/12/21 05:58:31;;;;;;;6.72;2.20;;;11.90;99.90;;;;;;5097634;28;20201;-80
2020/12/21 06:01:00;;;;;;;8.40;2.30;;;11.90;99.90;;;;;;5097219;28;20194;-80
2020/12/21 06:03:37;;;;;;;10.45;2.05;;;11.90;99.90;;;;;;5096998;28;20198;-80
2020/12/21 06:06:07;;;;;;;3.58;1.60;;;11.90;99.90;;;;;;5097109;28;20266;-82
2020/12/21 06:08:34;;;;;;;5.03;1.98;;;12.00;99.90;;;;;;5097426;28;20569;-80
2020/12/21 06:11:09;;;;;;;4.07;1.75;;;12.00;99.90;;;;;;5097093;28;20204;-80
2020/12/21 06:13:38;;;;;;;3.40;1.55;;;12.10;99.90;;;;;;5096890;28;20204;-83
2020/12/21 06:16:05;;;;;;;4.75;1.83;;;12.10;99.90;;;;;;5096894;28;20209;-80
2020/12/21 06:18:32;;;;;;;9.00;3.22;;;12.00;99.90;;;;;;5096880;28;20645;-80
2020/12/21 06:20:59;;;;;;;2.72;1.40;;;11.90;99.90;;;;;;5096634;28;20194;-80
2020/12/21 06:23:37;;;;;;;2.92;1.45;;;12.00;99.90;;;;;;5096889;28;20197;-80
2020/12/21 06:26:11;;;;;;;2.92;1.33;;;11.90;99.90;;;;;;5096816;28;20588;-80
2020/12/21 06:28:37;;;;;;;3.60;1.45;;;11.90;99.90;;;;;;5096717;28;20541;-80
2020/12/21 06:31:17;;;;;;;3.70;1.88;;;12.00;99.90;;;;;;5096578;28;20189;-81
2020/12/21 06:33:46;;;;;;;3.78;1.60;;;12.00;99.90;;;;;;5096695;28;20190;-80
2020/12/21 06:36:13;;;;;;;4.18;1.67;;;11.90;99.90;;;;;;5096416;28;20228;-82
2020/12/21 06:38:46;;;;;;;3.75;1.35;;;11.90;99.90;;;;;;5096269;28;20202;-80
2020/12/21 06:41:23;;;;;;;2.60;1.98;;;11.90;99.90;;;;;;5095857;28;20567;-79
2020/12/21 06:44:00;;;;;;;8.02;1.90;;;11.90;99.90;;;;;;5096319;28;20227;-81
2020/12/21 06:46:28;;;;;;;4.03;1.52;;;11.90;99.90;;;;;;5096235;28;20197;-80
2020/12/21 06:49:12;;;;;;;5.22;2.03;;;12.00;99.90;;;;;;5096235;28;20637;-79
2020/12/21 06:51:43;;;;;;;6.25;1.38;;;12.00;99.90;;;;;;5096074;28;20213;-79
2020/12/21 06:54:10;;;;;;;3.33;1.35;;;11.90;99.90;;;;;;5095923;28;20239;-78
2020/12/21 06:56:37;;;;;;;4.65;1.77;;;11.80;99.90;;;;;;5095788;28;20218;-79
2020/12/21 06:59:09;;;;;;;4.00;1.48;;;11.80;99.90;;;;;;5095993;28;20193;-79
2020/12/21 07:01:36;;;;;;;4.10;1.55;;;11.80;99.90;;;;;;5096032;28;20201;-79
2020/12/21 07:04:03;;;;;;;6.70;1.60;;;11.70;99.90;;;;;;5095917;28;20193;-79
2020/12/21 07:06:30;;;;;;;12.43;1.40;;;11.60;99.90;;;;;;5095845;28;20571;-79
2020/12/21 07:08:59;;;;;;;2.53;1.80;;;11.60;99.90;;;;;;5094631;28;20198;-79
2020/12/21 07:11:26;;;;;;;2.30;1.38;;;11.60;99.90;;;;;;5095759;28;20197;-79
2020/12/21 07:13:52;;;;;;;6.80;1.50;;;11.60;99.90;;;;;;5095717;28;20603;-79
2020/12/21 07:16:19;;;;;;;4.55;1.40;;;11.60;99.90;;;;;;5095733;28;20198;-79
2020/12/21 07:18:47;;;;;;;4.40;1.55;;;11.70;99.90;;;;;;5095764;28;20602;-79
2020/12/21 07:21:14;;;;;;;4.32;1.50;;;11.70;99.90;;;;;;5095627;28;20273;-79
2020/12/21 07:23:42;;;;;;;4.07;1.50;;;11.80;99.90;;;;;;5095416;28;20197;-79
2020/12/21 07:26:09;;;;;;;4.97;1.80;;;11.80;99.90;;;;;;5095464;28;20546;-79
2020/12/21 07:28:36;;;;;;;5.25;1.70;;;11.70;99.90;;;;;;5095532;28;20201;-79
2020/12/21 07:31:07;;;;;;;1.70;1.30;;;11.90;99.90;;;;;;5095551;28;20194;-79
2020/12/21 07:33:34;;;;;;;4.63;1.85;;;11.90;99.90;;;;;;5095304;28;20229;-79
2020/12/21 07:36:00;;;;;;;5.20;1.35;;;11.90;99.90;;;;;;5095117;28;20605;-79
2020/12/21 07:38:27;;;;;;;6.30;2.42;;;11.80;99.90;;;;;;5095361;28;20755;-79
2020/12/21 07:40:55;;;;;;;6.45;2.13;;;11.80;99.90;;;;;;5095245;28;20205;-79
2020/12/21 07:43:27;;;;;;;3.10;1.75;;;11.80;99.90;;;;;;5095129;28;20198;-79
2020/12/21 07:46:02;;;;;;;10.38;2.42;;;11.90;99.90;;;;;;5095121;28;20198;-78
2020/12/21 07:48:29;;;;;;;5.35;1.63;;;11.90;99.90;;;;;;5095107;28;20204;-79
2020/12/21 07:50:56;;;;;;;4.88;2.17;;;11.80;99.90;;;;;;5094984;28;20202;-78
2020/12/21 07:53:23;;;;;;;3.88;1.65;;;11.80;99.90;;;;;;5095070;28;20225;-78
2020/12/21 07:55:57;;;;;;;1.50;1.15;;;11.60;99.90;;;;;;5094690;28;20549;-79
2020/12/21 07:58:24;;;;;;;3.33;1.63;;;11.70;99.90;;;;;;5094765;28;20189;-79
2020/12/21 08:00:55;;;;;;;4.50;2.00;;;11.70;99.90;;;;;;5094993;28;20205;-79
2020/12/21 08:03:24;;;;;;;6.07;1.60;;;11.80;99.90;;;;;;5094785;28;20194;-79
2020/12/21 08:05:50;;;;;;;5.30;2.63;;;11.70;99.90;;;;;;5093760;28;20567;-79
2020/12/21 08:08:22;;;;;;;3.75;1.70;;;11.60;99.90;;;;;;5093557;28;20640;-79
2020/12/21 08:10:56;;;;;;;3.63;1.48;;;11.60;99.90;;;;;;5094762;28;20249;-79
2020/12/21 08:13:22;;;;;;;8.85;2.00;;;11.60;99.90;;;;;;5094653;28;20217;-80
2020/12/21 08:15:49;;;;;;;7.75;1.80;;;11.60;99.90;;;;;;5083411;28;20252;-79
2020/12/21 08:18:15;;;;;;;4.72;1.67;;;11.70;99.90;;;;;;5074345;28;20218;-79
2020/12/21 08:20:50;;;;;;;6.10;2.28;;;11.70;99.90;;;;;;5073687;28;20221;-80
2020/12/21 08:23:24;;;;;;;6.03;2.40;;;11.60;99.90;;;;;;5073722;28;20194;-80
2020/12/21 08:25:50;;;;;;;5.57;2.55;;;11.80;99.90;;;;;;5074149;28;20198;-80
2020/12/21 08:28:32;;;;;;;4.50;2.00;;;11.80;99.90;;;;;;5074074;28;20257;-79
2020/12/21 08:31:13;;;;;;;3.58;2.00;;;11.60;99.90;;;;;;5074005;28;20194;-80
2020/12/21 08:33:43;;;;;;;6.20;1.60;;;11.50;99.90;;;;;;5073933;28;20224;-79
2020/12/21 08:36:20;;;;;;;3.13;1.80;;;11.60;99.90;;;;;;5074040;28;20221;-79
2020/12/21 08:38:46;;;;;;;6.10;1.92;;;11.80;99.90;;;;;;5073920;28;20202;-79
2020/12/21 08:41:13;;;;;;;5.90;2.03;;;11.70;99.90;;;;;;5074092;28;20587;-79
2020/12/21 08:43:40;;;;;;;7.95;1.98;;;11.70;99.90;;;;;;5073700;28;20217;-79
2020/12/21 08:46:07;;;;;;;14.25;2.50;;;11.90;99.90;;;;;;5073757;28;20244;-79
2020/12/21 08:48:37;;;;;;;5.00;1.98;;;12.00;99.90;;;;;;5073743;28;20664;-79
2020/12/21 08:51:03;;;;;;;6.13;1.90;;;12.10;99.90;;;;;;5073558;28;20198;-79
2020/12/21 08:53:29;;;;;;;5.88;1.70;;;12.10;99.90;;;;;;5073498;28;20232;-79
2020/12/21 08:55:55;;;;;;;3.65;1.52;;;12.00;99.90;;;;;;5073156;28;20190;-79
2020/12/21 08:58:21;;;;;;;2.55;1.67;;;11.70;99.90;;;;;;5073562;28;20199;-79
2020/12/21 09:00:48;;;;;;;6.38;2.47;;;11.80;99.90;;;;;;5073522;28;20255;-79
2020/12/21 09:03:15;;;;;;;3.97;1.38;;;11.80;99.90;;;;;;5073374;28;20563;-79
2020/12/21 09:05:41;;;;;;;7.15;1.75;;;11.80;99.90;;;;;;5073403;28;20222;-80
2020/12/21 09:08:07;;;;;;;3.42;2.00;;;11.90;99.90;;;;;;5073365;28;20558;-79
2020/12/21 09:10:33;;;;;;;6.88;2.15;;;11.90;99.90;;;;;;5073512;28;20198;-79
2020/12/21 09:12:59;;;;;;;3.90;1.85;;;11.90;99.90;;;;;;5073436;28;20704;-79
2020/12/21 09:15:26;;;;;;;3.90;1.92;;;11.80;99.90;;;;;;5073330;28;20194;-79
2020/12/21 09:17:53;;;;;;;4.72;1.73;;;11.70;99.90;;;;;;5073397;28;20589;-79
2020/12/21 09:20:19;;;;;;;6.25;1.98;;;11.80;99.90;;;;;;5073327;28;20199;-79
2020/12/21 09:22:45;;;;;;;2.47;1.73;;;12.10;99.90;;;;;;5073188;28;20224;-80
2020/12/21 09:25:13;;;;;;;8.48;1.83;;;12.00;99.90;;;;;;5073464;28;20213;-79
2020/12/21 09:27:39;;;;;;;5.45;2.20;;;11.90;99.90;;;;;;5073255;28;20288;-79
2020/12/21 09:30:06;;;;;;;5.10;1.67;;;11.90;99.90;;;;;;5073010;28;20199;-79
2020/12/21 09:32:32;;;;;;;5.82;2.13;;;11.80;99.90;;;;;;5072405;28;20600;-79
2020/12/21 09:34:59;;;;;;;3.58;2.15;;;11.80;99.90;;;;;;5072945;28;20190;-79
2020/12/21 09:37:25;;;;;;;4.30;1.80;;;12.00;99.90;;;;;;5073240;28;20195;-79
2020/12/21 09:39:51;;;;;;;3.33;1.75;;;12.10;99.90;;;;;;5073025;28;20244;-79
2020/12/21 09:42:17;;;;;;;4.38;2.47;;;12.00;99.90;;;;;;5073369;28;20198;-79
2020/12/21 09:44:47;;;;;;;3.55;1.40;;;11.80;99.90;;;;;;5072965;28;20201;-79
2020/12/21 09:47:13;;;;;;;3.63;1.48;;;11.80;99.90;;;;;;5073163;28;20190;-79
2020/12/21 09:49:39;;;;;;;8.18;1.80;;;11.90;99.90;;;;;;5073160;28;20244;-79
2020/12/21 09:52:07;;;;;;;7.13;2.58;;;12.00;99.90;;;;;;5072798;28;20222;-79
2020/12/21 09:54:33;;;;;;;4.05;2.25;;;11.90;99.90;;;;;;5072868;28;20202;-79
2020/12/21 09:56:59;;;;;;;6.95;2.55;;;11.90;99.90;;;;;;5072601;28;20222;-79
2020/12/21 09:59:25;;;;;;;7.00;2.70;;;11.80;99.90;;;;;;5072930;28;20656;-79
2020/12/21 10:01:52;;;;;;;5.20;1.52;;;12.00;99.90;;;;;;5072842;28;20198;-79
2020/12/21 10:04:18;;;;;;;5.45;1.63;;;12.10;99.90;;;;;;5072737;28;20710;-79
2020/12/21 10:06:47;;;;;;;4.45;1.77;;;12.10;99.90;;;;;;5072698;28;20222;-79
2020/12/21 10:09:15;;;;;;;4.20;2.00;;;12.10;99.90;;;;;;5073108;28;20199;-79
2020/12/21 10:11:41;;;;;;;3.88;1.90;;;12.20;99.90;;;;;;5072765;28;20543;-79
2020/12/21 10:14:07;;;;;;;4.25;1.85;;;12.20;99.90;;;;;;5072522;28;20198;-79
2020/12/21 10:16:33;;;;;;;4.18;1.77;;;12.30;99.90;;;;;;5072912;28;20205;-79
2020/12/21 10:19:00;;;;;;;5.28;1.63;;;12.20;99.90;;;;;;5072680;28;20202;-79
2020/12/21 10:21:26;;;;;;;3.72;1.85;;;12.10;99.90;;;;;;5072841;28;20198;-80
2020/12/21 10:23:52;;;;;;;5.45;1.90;;;12.20;99.90;;;;;;5072564;28;20194;-79
2020/12/21 10:26:19;;;;;;;3.67;1.88;;;12.30;99.90;;;;;;5072704;28;20198;-79
2020/12/21 10:28:45;;;;;;;4.10;1.98;;;12.20;99.90;;;;;;5072618;28;20213;-80
2020/12/21 10:31:11;;;;;;;3.92;1.85;;;12.30;99.90;;;;;;5072793;28;20222;-79
2020/12/21 10:33:38;;;;;;;3.20;1.95;;;12.20;99.90;;;;;;5072300;28;20249;-79
2020/12/21 10:36:04;;;;;;;9.27;2.00;;;12.40;99.90;;;;;;5072387;28;20230;-79
2020/12/21 10:38:31;;;;;;;3.67;1.40;;;12.40;99.90;;;;;;5072566;28;20198;-79
2020/12/21 10:40:58;;;;;;;5.70;1.75;;;12.50;99.90;;;;;;5072666;28;20194;-79
2020/12/21 10:43:25;;;;;;;2.88;1.90;;;12.30;99.90;;;;;;5075006;28;20559;-80
2020/12/21 10:45:51;;;;;;;10.00;1.45;;;12.40;99.90;;;;;;5076031;28;20669;-80
2020/12/21 10:48:17;;;;;;;3.30;1.50;;;12.40;99.90;;;;;;5076150;28;20195;-79
2020/12/21 10:50:45;;;;;;;4.15;1.80;;;12.50;99.90;;;;;;5075930;28;20195;-79
2020/12/21 10:53:12;;;;;;;5.93;1.60;;;12.40;99.90;;;;;;5075932;28;20676;-79
2020/12/21 10:55:38;;;;;;;13.45;2.92;;;12.50;99.90;;;;;;5075780;28;20194;-79
2020/12/21 10:58:04;;;;;;;3.00;1.65;;;12.40;99.90;;;;;;5075558;28;20230;-79
2020/12/21 11:00:31;;;;;;;4.47;1.75;;;12.20;99.90;;;;;;5075832;28;20198;-79
2020/12/21 11:02:58;;;;;;;4.95;1.80;;;12.40;99.90;;;;;;5075780;28;20202;-79
2020/12/21 11:05:24;;;;;;;4.38;1.77;;;12.60;99.90;;;;;;5075453;28;20218;-79
2020/12/21 11:07:50;;;;;;;5.20;2.10;;;12.70;99.90;;;;;;5075763;28;20213;-79
2020/12/21 11:10:16;;;;;;;5.80;2.00;;;12.70;99.90;;;;;;5075487;28;20194;-79
2020/12/21 11:12:42;;;;;;;2.03;1.40;;;12.70;99.90;;;;;;5075661;28;20233;-79
2020/12/21 11:15:09;;;;;;;9.20;1.60;;;12.70;99.90;;;;;;5077923;28;20193;-80
2020/12/21 11:17:36;;;;;;;10.52;2.20;;;12.60;99.90;;;;;;5075105;28;20202;-79
2020/12/21 11:20:03;;;;;;;3.50;1.63;;;12.80;99.90;;;;;;5075441;28;20645;-79
2020/12/21 11:22:29;;;;;;;2.92;1.40;;;12.70;99.90;;;;;;5077549;28;20202;-79
2020/12/21 11:24:56;;;;;;;8.18;1.63;;;12.70;99.90;;;;;;5075292;28;20256;-79
2020/12/21 11:27:22;;;;;;;2.90;1.50;;;12.50;99.90;;;;;;5075258;28;20194;-79
2020/12/21 11:29:48;;;;;;;8.95;2.50;;;12.60;99.90;;;;;;5075221;28;20220;-79
2020/12/21 11:32:15;;;;;;;7.40;2.42;;;12.70;99.90;;;;;;5081650;28;20214;-78
2020/12/21 11:34:42;;;;;;;4.05;1.35;;;12.80;99.90;;;;;;5081975;28;20186;-80
2020/12/21 11:37:08;;;;;;;5.60;1.70;;;12.70;99.90;;;;;;5095218;28;20611;-79
2020/12/21 11:39:34;;;;;;;4.20;2.40;;;12.80;99.90;;;;;;5094282;28;20198;-79
2020/12/21 11:42:00;;;;;;;3.85;1.70;;;12.70;99.90;;;;;;5095397;28;20236;-79
2020/12/21 11:44:26;;;;;;;2.97;1.73;;;12.60;99.90;;;;;;5095049;28;20193;-79
2020/12/21 11:46:53;;;;;;;4.28;1.80;;;12.60;99.90;;;;;;5088305;28;20194;-79
2020/12/21 11:49:19;;;;;;;5.78;1.58;;;12.70;99.90;;;;;;5074645;28;20203;-79
2020/12/21 11:51:46;;;;;;;2.20;1.40;;;12.80;99.90;;;;;;5074482;28;20191;-79
2020/12/21 11:54:12;;;;;;;6.05;1.65;;;12.60;99.90;;;;;;5073820;28;20677;-79
2020/12/21 11:56:38;;;;;;;2.72;1.40;;;12.70;99.90;;;;;;5074432;28;20284;-80
2020/12/21 11:59:04;;;;;;;4.63;1.90;;;12.80;99.90;;;;;;5074410;28;20248;-81
2020/12/21 12:01:30;;;;;;;5.00;2.60;;;12.90;99.90;;;;;;5074689;28;20676;-79
2020/12/21 12:03:57;;;;;;;3.08;1.75;;;13.10;99.90;;;;;;5074303;28;20214;-79
2020/12/21 12:06:26;;;;;;;2.58;1.83;;;13.10;99.90;;;;;;5074331;28;21050;-79
2020/12/21 12:08:53;;;;;;;1.95;1.35;;;13.10;99.90;;;;;;5074466;28;20217;-79
2020/12/21 12:11:23;;;;;;;3.42;1.83;;;12.90;99.90;;;;;;5083442;28;20663;-79
2020/12/21 12:13:50;;;;;;;7.97;2.17;;;12.90;99.90;;;;;;5094350;28;20388;-79
2020/12/21 12:16:20;;;;;;;5.03;2.05;;;12.90;99.90;;;;;;5094687;28;20197;-79
2020/12/21 12:18:47;;;;;;;4.90;1.90;;;13.10;99.90;;;;;;5094595;28;20561;-79
2020/12/21 12:21:20;;;;;;;3.33;2.28;;;13.30;99.90;;;;;;5093998;28;20194;-80
2020/12/21 12:23:46;;;;;;;8.48;3.13;;;13.20;99.90;;;;;;5094498;28;20197;-79
2020/12/21 12:26:16;;;;;;;4.07;1.80;;;13.10;99.90;;;;;;5094312;28;20629;-79
2020/12/21 12:28:42;;;;;;;2.55;1.55;;;13.20;99.90;;;;;;5094179;28;20201;-79
2020/12/21 12:31:09;;;;;;;4.50;1.98;;;13.30;99.90;;;;;;5094352;28;20197;-79
2020/12/21 12:33:35;;;;;;;3.75;1.75;;;13.20;99.90;;;;;;5094454;28;20225;-79
2020/12/21 12:36:01;;;;;;;4.03;2.33;;;13.20;99.90;;;;;;5093969;28;20217;-79
2020/12/21 12:38:27;;;;;;;3.78;2.00;;;13.10;99.90;;;;;;5093907;28;20201;-79
2020/12/21 12:40:53;;;;;;;3.55;1.80;;;13.00;99.90;;;;;;5094251;28;20197;-80
2020/12/21 12:43:20;;;;;;;4.78;2.13;;;12.90;99.90;;;;;;5094074;28;20197;-79
2020/12/21 12:45:46;;;;;;;4.30;1.70;;;12.90;99.90;;;;;;5094188;28;20527;-79